Time;durP1;ratioP1;P1;durP2;ratioP2;P2;SDS_P1;SDS_P2;PMS_P1;PMS_P2;Temp;Humidity;BMP_temperature;BMP_pressure;BME280_temperature;BME280_humidity;BME280_pressure;Samples;Min_cycle;Max_cycle;Signal;HPM_P1;HPM_P2
2021/06/11 00:02:24;;;;;;;15.73;11.77;;;;;;;15.75;47.38;101897.41;5051437;28;20029;-72
2021/06/11 00:04:49;;;;;;;17.40;12.30;;;;;;;15.82;47.61;101895.34;5051065;28;20028;-72
2021/06/11 00:07:15;;;;;;;18.88;13.15;;;;;;;15.68;47.42;101894.19;5052017;28;20041;-73
2021/06/11 00:09:40;;;;;;;21.65;12.88;;;;;;;15.69;47.35;101898.56;5053290;28;20035;-73
2021/06/11 00:12:06;;;;;;;21.25;13.85;;;;;;;15.58;48.00;101893.78;5033386;28;20037;-67
2021/06/11 00:14:32;;;;;;;16.38;12.10;;;;;;;15.64;47.54;101895.28;5033238;28;20913;-68
2021/06/11 00:16:57;;;;;;;20.13;13.68;;;;;;;15.49;48.24;101896.84;5049673;28;20033;-66
2021/06/11 00:19:23;;;;;;;19.92;12.73;;;;;;;15.50;48.00;101895.88;5041972;28;20695;-67
2021/06/11 00:21:48;;;;;;;19.10;13.40;;;;;;;15.58;48.10;101893.78;5036064;28;20083;-67
2021/06/11 00:24:14;;;;;;;18.02;12.25;;;;;;;15.60;47.86;101888.44;5050753;28;20052;-69
2021/06/11 00:26:39;;;;;;;20.20;13.02;;;;;;;15.56;47.95;101887.72;5052590;28;20401;-67
2021/06/11 00:29:05;;;;;;;18.25;12.48;;;;;;;15.50;48.05;101895.88;5050888;28;20045;-67
2021/06/11 00:31:30;;;;;;;21.55;14.07;;;;;;;15.51;48.11;101884.44;5048233;28;20028;-68
2021/06/11 00:33:55;;;;;;;22.95;14.10;;;;;;;15.47;48.23;101880.22;5052176;28;20079;-72
2021/06/11 00:36:21;;;;;;;27.80;15.20;;;;;;;15.44;48.14;101887.41;5032127;28;20131;-69
2021/06/11 00:38:47;;;;;;;23.55;14.32;;;;;;;15.47;48.28;101888.13;5049264;28;20028;-69
2021/06/11 00:41:12;;;;;;;25.98;15.52;;;;;;;15.51;48.32;101881.81;5051321;28;20044;-73
2021/06/11 00:43:38;;;;;;;28.65;14.88;;;;;;;15.56;47.89;101879.81;5049462;28;20150;-69
2021/06/11 00:46:03;;;;;;;22.55;15.85;;;;;;;15.52;48.30;101887.94;5049265;28;20036;-66
2021/06/11 00:48:29;;;;;;;26.60;17.25;;;;;;;15.40;48.72;101880.59;5054327;28;20029;-66
2021/06/11 00:50:54;;;;;;;25.77;16.98;;;;;;;15.27;49.06;101881.13;5053745;28;20025;-66
2021/06/11 00:53:20;;;;;;;20.33;14.98;;;;;;;15.27;49.26;101878.47;5053917;28;20706;-67
2021/06/11 00:55:45;;;;;;;27.13;16.98;;;;;;;15.20;49.18;101878.81;5051257;28;20231;-68
2021/06/11 00:58:12;;;;;;;26.45;17.52;;;;;;;15.12;49.68;101882.59;5034733;28;20024;-68
2021/06/11 01:00:39;;;;;;;22.65;16.02;;;;;;;15.16;49.43;101878.91;5052984;28;20052;-67
2021/06/11 01:03:06;;;;;;;24.90;17.25;;;;;;;15.16;49.40;101883.34;5051824;28;20119;-68
2021/06/11 01:05:32;;;;;;;28.48;15.75;;;;;;;15.05;49.86;101881.16;5053525;28;20086;-67
2021/06/11 01:07:58;;;;;;;26.25;17.58;;;;;;;14.94;49.90;101884.25;5051865;28;20036;-69
2021/06/11 01:10:24;;;;;;;23.00;15.90;;;;;;;14.99;50.12;101881.41;5052721;28;20021;-69
2021/06/11 01:12:52;;;;;;;25.33;15.82;;;;;;;15.04;49.92;101879.47;5039217;28;20029;-66
2021/06/11 01:15:17;;;;;;;30.33;17.85;;;;;;;14.96;49.76;101879.78;5052580;28;20733;-68
2021/06/11 01:17:44;;;;;;;27.42;17.95;;;;;;;14.80;50.18;101880.50;5055038;28;20067;-69
2021/06/11 01:20:15;;;;;;;29.23;18.33;;;;;;;14.64;50.60;101878.50;5051486;28;20148;-69
2021/06/11 01:23:06;;;;;;;23.63;16.33;;;;;;;14.72;50.72;101879.06;5034128;28;20128;-67
2021/06/11 01:25:52;;;;;;;24.23;16.13;;;;;;;14.91;50.23;101883.53;5053891;28;20052;-68
2021/06/11 01:28:18;;;;;;;28.17;16.45;;;;;;;14.93;50.24;101882.53;5053979;28;20051;-68
2021/06/11 01:30:44;;;;;;;27.13;16.65;;;;;;;14.84;50.32;101879.47;5054116;28;20036;-69
2021/06/11 01:33:12;;;;;;;28.90;17.98;;;;;;;14.70;50.71;101875.63;5053310;28;20064;-69
2021/06/11 01:35:42;;;;;;;28.40;16.27;;;;;;;14.61;50.83;101875.97;5053115;28;20712;-69
2021/06/11 01:38:16;;;;;;;28.27;16.33;;;;;;;14.53;51.09;101875.47;5052489;28;20040;-70
2021/06/11 01:40:43;;;;;;;25.50;15.82;;;;;;;14.58;51.06;101872.63;5051379;28;20036;-68
2021/06/11 01:43:10;;;;;;;23.23;14.35;;;;;;;14.67;50.47;101872.25;5053879;28;20370;-67
2021/06/11 01:45:36;;;;;;;29.63;17.08;;;;;;;14.67;50.67;101881.00;5053080;28;20626;-67
2021/06/11 01:48:02;;;;;;;25.55;17.35;;;;;;;14.65;50.70;101872.31;5052848;28;20033;-68
2021/06/11 01:50:33;;;;;;;25.13;16.23;;;;;;;14.68;50.48;101872.19;5055181;28;20520;-67
2021/06/11 01:53:01;;;;;;;25.65;15.90;;;;;;;14.64;50.37;101867.13;5051169;28;20060;-68
2021/06/11 01:55:28;;;;;;;27.58;17.50;;;;;;;14.62;50.95;101869.81;5050481;28;20037;-68
2021/06/11 01:57:56;;;;;;;25.25;16.50;;;;;;;14.62;50.75;101866.34;5042198;28;20040;-68
2021/06/11 02:00:22;;;;;;;27.23;17.08;;;;;;;14.40;50.85;101859.28;5050795;28;20037;-67
2021/06/11 02:02:47;;;;;;;26.73;16.60;;;;;;;14.25;51.55;101863.38;5054155;28;20541;-66
2021/06/11 02:05:14;;;;;;;29.88;17.70;;;;;;;14.14;51.75;101855.06;5053127;28;20079;-65
2021/06/11 02:07:42;;;;;;;26.73;16.15;;;;;;;14.07;51.61;101853.59;5052018;28;20036;-66
2021/06/11 02:10:09;;;;;;;27.58;16.30;;;;;;;13.96;51.88;101851.38;5019663;28;20047;-65
2021/06/11 02:12:35;;;;;;;27.60;17.58;;;;;;;13.89;52.37;101849.91;5053330;28;20033;-65
2021/06/11 02:15:03;;;;;;;23.40;15.88;;;;;;;13.87;52.41;101852.59;5027150;28;20040;-65
2021/06/11 02:17:29;;;;;;;24.48;17.23;;;;;;;13.85;52.45;101846.56;5050352;28;20358;-66
2021/06/11 02:19:56;;;;;;;24.67;15.05;;;;;;;13.82;52.38;101843.19;5050744;28;20493;-66
2021/06/11 02:22:22;;;;;;;22.17;15.93;;;;;;;13.82;52.66;101833.53;5054988;28;20131;-66
2021/06/11 02:24:48;;;;;;;22.20;15.02;;;;;;;13.82;52.37;101833.53;5051049;28;20162;-66
2021/06/11 02:27:15;;;;;;;21.60;14.70;;;;;;;13.80;52.70;101831.88;5037214;28;20514;-66
2021/06/11 02:29:40;;;;;;;25.23;16.02;;;;;;;13.82;52.53;101833.53;5051879;28;20075;-66
2021/06/11 02:32:07;;;;;;;24.10;15.10;;;;;;;13.85;52.49;101825.53;5055690;28;20420;-66
2021/06/11 02:34:33;;;;;;;25.27;16.25;;;;;;;13.96;52.25;101829.50;5050941;28;20045;-66
2021/06/11 02:36:59;;;;;;;26.45;17.45;;;;;;;14.06;51.87;101825.59;5053093;28;20047;-66
2021/06/11 02:39:25;;;;;;;23.95;13.80;;;;;;;14.13;51.90;101827.06;5052133;28;20036;-65
2021/06/11 02:42:03;;;;;;;23.80;14.65;;;;;;;14.17;51.80;101828.66;5051801;28;20028;-66
2021/06/11 02:44:32;;;;;;;25.83;15.10;;;;;;;14.20;51.18;101823.28;5051215;28;20036;-70
2021/06/11 02:47:13;;;;;;;25.23;15.43;;;;;;;14.22;51.75;101831.09;5031658;28;20508;-70
2021/06/11 02:49:50;;;;;;;25.88;16.75;;;;;;;14.19;51.49;101825.94;5043624;28;20112;-67
2021/06/11 02:52:22;;;;;;;21.02;14.90;;;;;;;14.14;51.50;101823.50;5050921;28;20028;-66
2021/06/11 02:54:48;;;;;;;22.75;14.50;;;;;;;14.04;51.35;101825.66;5051962;28;20029;-66
2021/06/11 02:57:32;;;;;;;23.88;14.57;;;;;;;14.02;51.96;101824.84;5050515;28;20044;-64
2021/06/11 03:00:07;;;;;;;23.27;14.85;;;;;;;13.99;51.77;101829.41;5050851;28;20060;-66
2021/06/11 03:02:38;;;;;;;22.70;15.02;;;;;;;13.93;52.09;101823.44;5049714;28;20044;-67
2021/06/11 03:05:05;;;;;;;23.67;14.95;;;;;;;13.90;52.53;101820.09;5051253;28;20501;-69
2021/06/11 03:07:33;;;;;;;24.63;15.38;;;;;;;13.87;52.53;101821.06;5031362;28;20228;-68
2021/06/11 03:10:06;;;;;;;25.45;16.25;;;;;;;13.83;52.48;101822.13;5051800;28;20067;-69
2021/06/11 03:12:34;;;;;;;21.92;14.35;;;;;;;13.84;52.88;101815.94;5041644;28;20058;-68
2021/06/11 03:14:59;;;;;;;24.50;15.00;;;;;;;13.86;52.40;101813.25;5048314;28;20032;-69
2021/06/11 03:17:31;;;;;;;23.92;15.55;;;;;;;13.83;52.61;101813.34;5035347;28;20033;-70
2021/06/11 03:20:02;;;;;;;28.67;17.60;;;;;;;13.80;52.58;101814.34;5053250;28;20634;-67
2021/06/11 03:22:39;;;;;;;25.55;15.48;;;;;;;13.85;52.93;101817.66;5049959;28;20033;-69
2021/06/11 03:25:10;;;;;;;25.95;15.48;;;;;;;13.97;52.79;101821.56;5049532;28;20032;-67
2021/06/11 03:27:42;;;;;;;25.15;15.93;;;;;;;14.05;52.60;101818.63;5032781;28;20107;-69
2021/06/11 03:30:09;;;;;;;;;;;;;;;14.20;53.03;101825.91;5050951;28;20065;-69
2021/06/11 03:32:52;;;;;;;29.48;17.20;;;;;;;14.40;52.57;101821.63;5051739;28;19923;-66
2021/06/11 03:35:21;;;;;;;28.52;18.75;;;;;;;14.41;52.50;101816.34;5052625;28;20111;-67
2021/06/11 03:37:50;;;;;;;25.52;14.52;;;;;;;14.53;52.14;101814.97;5032382;28;20028;-66
2021/06/11 03:40:21;;;;;;;23.67;15.38;;;;;;;14.50;51.88;101820.31;5050909;28;20071;-66
2021/06/11 03:42:47;;;;;;;30.15;18.25;;;;;;;14.53;51.60;101820.22;5048908;28;20456;-68
2021/06/11 03:45:14;;;;;;;28.38;16.65;;;;;;;14.47;51.63;101823.09;5052535;28;20090;-68
2021/06/11 03:47:40;;;;;;;24.63;15.30;;;;;;;14.52;52.31;101819.38;5049109;28;20087;-67
2021/06/11 03:50:07;;;;;;;25.77;15.93;;;;;;;14.63;52.06;101832.06;5050040;28;20033;-66
2021/06/11 03:52:37;;;;;;;24.35;16.60;;;;;;;14.61;51.19;101823.34;5050246;28;22974;-68
2021/06/11 03:55:16;;;;;;;22.55;16.45;;;;;;;14.64;51.53;101823.25;5035786;28;20571;-68
2021/06/11 03:57:46;;;;;;;27.80;16.23;;;;;;;14.59;51.63;101816.47;5023902;28;20036;-67
2021/06/11 04:00:13;;;;;;;26.42;17.27;;;;;;;14.70;51.85;101817.75;5036473;28;20035;-68
2021/06/11 04:02:39;;;;;;;27.90;17.35;;;;;;;14.84;51.52;101819.78;5050091;28;20099;-67
2021/06/11 04:05:05;;;;;;;24.80;17.83;;;;;;;15.00;51.07;101817.31;5052542;28;20095;-67
2021/06/11 04:07:51;;;;;;;28.63;18.92;;;;;;;15.06;50.70;101813.56;5031517;28;20029;-67
2021/06/11 04:10:30;;;;;;;26.98;15.65;;;;;;;15.06;51.04;101809.16;5051322;28;20056;-67
2021/06/11 04:13:02;;;;;;;33.97;18.13;;;;;;;15.20;50.89;101815.59;5051454;28;20071;-67
2021/06/11 04:15:32;;;;;;;25.60;15.45;;;;;;;15.37;50.51;101819.22;5048447;28;20604;-66
2021/06/11 04:18:03;;;;;;;26.65;16.83;;;;;;;15.48;50.27;101821.38;5052123;28;20035;-68
2021/06/11 04:20:30;;;;;;;24.38;15.45;;;;;;;15.43;50.44;101814.59;5040938;28;20059;-67
2021/06/11 04:22:59;;;;;;;28.63;17.33;;;;;;;15.44;50.25;101819.78;5055506;28;20033;-67
2021/06/11 04:25:33;;;;;;;29.75;18.92;;;;;;;15.56;50.17;101818.38;5057448;28;20052;-69
2021/06/11 04:28:01;;;;;;;26.63;16.35;;;;;;;15.84;50.08;101815.31;5035628;28;20037;-67
2021/06/11 04:30:27;;;;;;;33.53;17.80;;;;;;;15.94;49.64;101813.91;5053193;28;20036;-67
2021/06/11 04:32:53;;;;;;;30.48;17.02;;;;;;;16.03;49.52;101822.34;5045092;28;20414;-67
2021/06/11 04:35:26;;;;;;;28.90;17.85;;;;;;;15.89;50.21;101821.19;5054236;28;20412;-68
2021/06/11 04:37:52;;;;;;;29.35;17.75;;;;;;;16.06;49.50;101819.56;5055216;28;20072;-66
2021/06/11 04:40:18;;;;;;;31.05;17.35;;;;;;;16.26;49.55;101823.88;5055695;28;20064;-67
2021/06/11 04:42:44;;;;;;;24.50;14.52;;;;;;;16.61;48.90;101827.38;5051646;28;20032;-68
2021/06/11 04:45:11;;;;;;;26.17;15.18;;;;;;;16.73;48.24;101833.81;5053748;28;20425;-68
2021/06/11 04:47:36;;;;;;;24.67;15.07;;;;;;;16.90;47.69;101830.38;5052985;28;20161;-68
2021/06/11 04:50:02;;;;;;;28.10;16.23;;;;;;;16.94;47.21;101827.47;5055418;28;20171;-67
2021/06/11 04:52:28;;;;;;;24.75;14.98;;;;;;;16.95;47.74;101833.59;5054145;28;20524;-67
2021/06/11 04:54:53;;;;;;;28.77;16.83;;;;;;;17.03;46.98;101839.34;5054176;28;20025;-67
2021/06/11 04:57:19;;;;;;;24.05;15.95;;;;;;;17.01;47.67;101830.66;5051904;28;20115;-67
2021/06/11 04:59:44;;;;;;;25.50;16.52;;;;;;;17.17;47.34;101826.25;5055924;28;20174;-67
2021/06/11 05:02:10;;;;;;;21.88;15.05;;;;;;;17.62;46.47;101819.44;5055870;28;20126;-70
2021/06/11 05:04:36;;;;;;;28.27;15.80;;;;;;;18.25;44.88;101823.03;5053121;28;20114;-68
2021/06/11 05:07:02;;;;;;;24.50;14.68;;;;;;;19.94;41.13;101828.66;5039108;28;20075;-68
2021/06/11 05:09:28;;;;;;;22.05;13.18;;;;;;;22.36;36.45;101829.53;5035718;28;20025;-70
2021/06/11 05:11:53;;;;;;;22.83;14.13;;;;;;;23.97;33.67;101824.03;5040718;28;20139;-67
2021/06/11 05:14:19;;;;;;;19.55;13.32;;;;;;;25.37;30.83;101822.81;5052052;28;20032;-67
2021/06/11 05:16:44;;;;;;;22.15;12.90;;;;;;;26.24;30.78;101819.44;5050888;28;20518;-67
2021/06/11 05:19:10;;;;;;;21.50;14.20;;;;;;;27.03;27.77;101825.50;5025817;28;20037;-68
2021/06/11 05:21:35;;;;;;;19.35;13.25;;;;;;;27.57;26.90;101823.84;5056557;28;20044;-67
2021/06/11 05:24:01;;;;;;;20.65;12.63;;;;;;;27.64;27.32;101826.78;5054955;28;20070;-66
2021/06/11 05:26:26;;;;;;;18.50;13.88;;;;;;;27.95;27.95;101821.06;5043824;28;20408;-68
2021/06/11 05:28:52;;;;;;;20.92;14.48;;;;;;;28.72;26.29;101823.06;5039554;28;20021;-67
2021/06/11 05:31:17;;;;;;;18.73;12.00;;;;;;;28.99;25.20;101829.22;5037280;28;20028;-66
2021/06/11 05:33:43;;;;;;;19.02;14.52;;;;;;;28.36;26.49;101824.94;5051833;28;20469;-67
2021/06/11 05:36:09;;;;;;;22.88;15.43;;;;;;;28.17;26.93;101827.84;5054304;28;20047;-68
2021/06/11 05:38:34;;;;;;;19.70;12.98;;;;;;;28.06;27.57;101818.13;5036098;28;20044;-69
2021/06/11 05:41:02;;;;;;;21.13;14.93;;;;;;;28.21;26.87;101823.81;5055305;28;20059;-68
2021/06/11 05:43:28;;;;;;;17.02;12.35;;;;;;;28.15;26.16;101827.97;5051080;28;20146;-69
2021/06/11 05:45:54;;;;;;;19.08;12.55;;;;;;;28.51;26.08;101830.59;5053459;28;20036;-69
2021/06/11 05:48:19;;;;;;;17.38;12.85;;;;;;;28.51;26.28;101819.84;5053353;28;20528;-68
2021/06/11 05:50:45;;;;;;;18.25;10.88;;;;;;;28.59;27.01;101827.97;5039134;28;20127;-70
2021/06/11 05:53:10;;;;;;;22.67;12.52;;;;;;;28.68;26.20;101826.19;5036458;28;20485;-68
2021/06/11 05:55:37;;;;;;;18.38;13.65;;;;;;;28.91;26.35;101821.97;5053203;28;20033;-68
2021/06/11 05:58:02;;;;;;;13.90;11.00;;;;;;;28.75;26.51;101813.81;5050359;28;20068;-69
2021/06/11 06:00:28;;;;;;;21.23;13.07;;;;;;;29.66;24.86;101820.41;5036537;28;20124;-68
2021/06/11 06:02:53;;;;;;;16.55;12.15;;;;;;;29.86;25.47;101821.78;5052618;28;20055;-69
2021/06/11 06:05:19;;;;;;;15.18;11.43;;;;;;;30.06;24.60;101829.56;5041169;28;20083;-69
2021/06/11 06:07:44;;;;;;;14.00;10.65;;;;;;;29.47;25.14;101833.16;5044296;28;20029;-70
2021/06/11 06:10:11;;;;;;;13.73;10.35;;;;;;;30.45;23.54;101821.66;5032119;28;20529;-69
2021/06/11 06:12:37;;;;;;;15.82;10.02;;;;;;;30.22;23.97;101818.81;5052707;28;20072;-68
2021/06/11 06:15:03;;;;;;;10.48;9.38;;;;;;;30.22;23.37;101826.91;5050960;28;20115;-69
2021/06/11 06:17:34;;;;;;;12.05;8.93;;;;;;;29.25;24.76;101822.97;5054065;28;20504;-68
2021/06/11 06:20:00;;;;;;;10.40;9.40;;;;;;;30.47;24.04;101821.50;5054006;28;20086;-69
2021/06/11 06:22:26;;;;;;;13.00;9.57;;;;;;;31.09;23.31;101818.13;5036591;28;20029;-69
2021/06/11 06:24:51;;;;;;;10.95;9.52;;;;;;;31.53;21.67;101821.13;5050513;28;20032;-69
2021/06/11 06:27:16;;;;;;;10.88;9.75;;;;;;;29.50;25.54;101819.34;5052207;28;20029;-71
2021/06/11 06:29:42;;;;;;;12.05;9.77;;;;;;;30.28;23.62;101815.41;5037403;28;20593;-69
2021/06/11 06:32:08;;;;;;;12.68;9.73;;;;;;;31.47;22.74;101816.44;5052507;28;20058;-70
2021/06/11 06:34:33;;;;;;;10.15;8.68;;;;;;;30.55;23.26;101814.22;5052116;28;20289;-70
2021/06/11 06:36:58;;;;;;;9.27;7.43;;;;;;;31.27;22.77;101815.16;5021707;28;20040;-67
2021/06/11 06:39:26;;;;;;;9.40;7.72;;;;;;;30.46;23.33;101809.00;5052700;28;20036;-69
2021/06/11 06:41:51;;;;;;;7.70;6.63;;;;;;;30.49;23.47;101814.03;5052981;28;20127;-70
2021/06/11 06:44:16;;;;;;;9.60;6.88;;;;;;;30.23;24.01;101817.78;5054277;28;20163;-68
2021/06/11 06:46:42;;;;;;;8.95;5.30;;;;;;;30.57;22.90;101825.69;5049385;28;20040;-71
2021/06/11 06:49:09;;;;;;;8.30;6.68;;;;;;;29.05;25.83;101817.81;5052395;28;20036;-68
2021/06/11 06:51:36;;;;;;;7.50;6.55;;;;;;;30.70;23.38;101814.38;5051639;28;20028;-69
2021/06/11 06:54:02;;;;;;;7.32;5.88;;;;;;;32.19;22.95;101809.84;5052690;28;20035;-68
2021/06/11 06:56:29;;;;;;;8.63;5.68;;;;;;;33.70;19.79;101808.56;5017278;28;20079;-68
2021/06/11 06:58:55;;;;;;;8.57;4.07;;;;;;;33.65;19.93;101806.41;5053376;28;20037;-67
2021/06/11 07:01:24;;;;;;;6.03;4.25;;;;;;;33.46;19.93;101815.19;5050769;28;20400;-68
2021/06/11 07:03:50;;;;;;;7.22;5.30;;;;;;;32.77;20.32;101813.66;5051082;28;20070;-70
2021/06/11 07:06:15;;;;;;;5.88;5.25;;;;;;;31.05;22.62;101817.66;5051103;28;20104;-68
2021/06/11 07:08:41;;;;;;;5.60;5.05;;;;;;;31.41;21.59;101817.13;5050816;28;20477;-70
2021/06/11 07:11:07;;;;;;;4.70;3.70;;;;;;;31.07;22.50;101817.47;5033019;28;20124;-69
2021/06/11 07:13:32;;;;;;;7.60;3.17;;;;;;;30.04;23.28;101808.16;5031465;28;20025;-69
2021/06/11 07:15:58;;;;;;;3.30;3.00;;;;;;;31.34;22.14;101802.66;5051847;28;20036;-70
2021/06/11 07:18:24;;;;;;;3.58;3.00;;;;;;;30.73;22.55;101813.16;5051435;28;20032;-69
2021/06/11 07:20:50;;;;;;;4.60;3.30;;;;;;;32.50;20.39;101804.34;5050224;28;20028;-69
2021/06/11 07:23:15;;;;;;;4.57;2.30;;;;;;;32.55;20.29;101801.06;5051215;28;20032;-68
2021/06/11 07:25:41;;;;;;;4.10;2.95;;;;;;;32.77;20.51;101802.00;5051905;28;20396;-69
2021/06/11 07:28:06;;;;;;;4.45;3.83;;;;;;;32.64;20.84;101802.66;5050779;28;20527;-67
2021/06/11 07:30:32;;;;;;;4.88;3.97;;;;;;;33.64;19.14;101802.03;5055062;28;20060;-70
2021/06/11 07:32:58;;;;;;;4.07;3.75;;;;;;;33.57;19.26;101805.69;5050318;28;20040;-70
2021/06/11 07:35:24;;;;;;;10.48;4.18;;;;;;;33.51;19.46;101803.78;5051660;28;20037;-69
2021/06/11 07:37:49;;;;;;;4.68;3.75;;;;;;;33.91;19.70;101805.03;5033723;28;20109;-68
2021/06/11 07:40:15;;;;;;;6.25;3.15;;;;;;;33.11;19.24;101797.88;5051432;28;20136;-69
2021/06/11 07:42:41;;;;;;;4.05;3.65;;;;;;;33.90;19.06;101791.66;5052113;28;20346;-72
2021/06/11 07:45:08;;;;;;;3.60;3.10;;;;;;;33.07;20.23;101799.28;5052166;28;20041;-69
2021/06/11 07:47:34;;;;;;;5.32;4.18;;;;;;;32.58;20.82;101793.41;5052214;28;20028;-68
2021/06/11 07:50:00;;;;;;;7.75;3.72;;;;;;;33.44;20.02;101792.88;5051153;28;20131;-69
2021/06/11 07:52:25;;;;;;;5.50;3.60;;;;;;;33.72;19.28;101787.53;5049619;28;20028;-70
2021/06/11 07:54:51;;;;;;;4.10;3.13;;;;;;;34.47;19.66;101786.03;5041341;28;20405;-69
2021/06/11 07:57:16;;;;;;;4.20;3.80;;;;;;;35.11;18.44;101789.50;5054049;28;20520;-69
2021/06/11 07:59:42;;;;;;;4.03;3.63;;;;;;;35.98;17.20;101785.06;5055400;28;20433;-68
2021/06/11 08:02:08;;;;;;;4.60;3.00;;;;;;;35.20;18.20;101793.75;5038326;28;20424;-68
2021/06/11 08:04:33;;;;;;;6.53;4.22;;;;;;;35.39;16.82;101791.28;5039207;28;20044;-68
2021/06/11 08:06:59;;;;;;;4.03;3.13;;;;;;;34.53;18.18;101792.56;5040309;28;20033;-68
2021/06/11 08:09:28;;;;;;;4.50;2.78;;;;;;;34.32;17.95;101785.31;5053189;28;20532;-68
2021/06/11 08:11:54;;;;;;;2.65;2.30;;;;;;;33.17;19.95;101797.97;5056418;28;20043;-68
2021/06/11 08:14:19;;;;;;;4.13;3.72;;;;;;;32.95;19.64;101788.09;5054766;28;20024;-68
2021/06/11 08:16:45;;;;;;;6.00;4.13;;;;;;;31.17;21.71;101789.25;5053866;28;20044;-68
2021/06/11 08:19:10;;;;;;;3.60;3.30;;;;;;;32.48;20.92;101787.44;5056556;28;20409;-69
2021/06/11 08:21:36;;;;;;;3.00;2.72;;;;;;;32.68;20.77;101785.03;5037861;28;20428;-68
2021/06/11 08:24:02;;;;;;;4.10;3.47;;;;;;;31.64;22.04;101797.44;5040728;28;20043;-68
2021/06/11 08:26:27;;;;;;;5.03;4.15;;;;;;;31.77;21.52;101792.28;5053717;28;20029;-69
2021/06/11 08:28:53;;;;;;;5.70;3.78;;;;;;;31.32;21.68;101807.41;5055446;28;20115;-68
2021/06/11 08:31:18;;;;;;;5.35;3.42;;;;;;;32.60;20.57;101793.22;5053770;28;20102;-68
2021/06/11 08:33:46;;;;;;;4.40;3.35;;;;;;;30.90;22.19;101792.38;5056458;28;20029;-68
2021/06/11 08:36:12;;;;;;;2.75;2.42;;;;;;;31.07;22.14;101804.84;5054728;28;20048;-69
2021/06/11 08:38:37;;;;;;;8.38;3.05;;;;;;;31.67;21.53;101799.75;5054625;28;20041;-69
2021/06/11 08:41:02;;;;;;;4.43;2.42;;;;;;;32.23;21.46;101789.50;5053473;28;20463;-70
2021/06/11 08:43:28;;;;;;;3.67;2.47;;;;;;;30.84;22.35;101787.69;5054177;28;20035;-68
2021/06/11 08:45:56;;;;;;;3.15;2.83;;;;;;;31.12;21.83;101796.19;5052609;28;20064;-71
2021/06/11 08:48:22;;;;;;;4.18;2.45;;;;;;;32.17;21.30;101790.28;5053642;28;20041;-72
2021/06/11 08:50:48;;;;;;;3.30;2.70;;;;;;;32.24;21.42;101796.63;5054220;28;20405;-75
2021/06/11 08:53:13;;;;;;;3.38;2.53;;;;;;;31.53;22.11;101799.53;5053002;28;20032;-70
2021/06/11 08:55:39;;;;;;;6.03;2.35;;;;;;;31.00;23.18;101803.78;5054503;28;20028;-68
2021/06/11 08:58:06;;;;;;;7.97;2.40;;;;;;;31.61;22.89;101794.06;5054510;28;20040;-70
2021/06/11 09:00:34;;;;;;;5.05;2.67;;;;;;;32.44;20.80;101796.94;5055825;28;20557;-70
2021/06/11 09:03:17;;;;;;;5.25;1.92;;;;;;;32.21;21.03;101791.59;5037217;28;20082;-68
2021/06/11 09:06:06;;;;;;;3.28;1.67;;;;;;;30.57;22.78;101795.19;5038304;28;20021;-69
2021/06/11 09:08:32;;;;;;;3.53;2.08;;;;;;;29.78;23.25;101798.38;5053719;28;20531;-69
2021/06/11 09:11:19;;;;;;;4.25;2.30;;;;;;;30.99;21.82;101794.03;5051263;28;20048;-69
2021/06/11 09:13:49;;;;;;;12.57;2.92;;;;;;;31.82;21.84;101790.69;5054506;28;20036;-69
2021/06/11 09:16:23;;;;;;;6.28;3.00;;;;;;;32.05;21.83;101797.97;5053615;28;20040;-70
2021/06/11 09:18:54;;;;;;;5.30;2.60;;;;;;;31.53;21.36;101795.97;5030108;28;20060;-69
2021/06/11 09:21:23;;;;;;;4.90;2.08;;;;;;;33.15;19.84;101783.75;5055462;28;20067;-69
2021/06/11 09:24:08;;;;;;;2.85;2.00;;;;;;;31.47;21.86;101778.63;5053584;28;20459;-68
2021/06/11 09:26:33;;;;;;;5.20;2.00;;;;;;;30.23;22.86;101790.00;5045644;28;20123;-70
2021/06/11 09:29:23;;;;;;;2.97;1.80;;;;;;;30.53;22.85;101789.28;5054667;28;20111;-70
2021/06/11 09:31:49;;;;;;;3.10;1.75;;;;;;;30.73;23.05;101787.03;5053463;28;20029;-68
2021/06/11 09:34:23;;;;;;;4.78;1.63;;;;;;;30.12;24.00;101783.94;5034676;28;20021;-68
2021/06/11 09:37:00;;;;;;;2.90;1.63;;;;;;;28.92;24.33;101774.38;5035378;28;20028;-69
2021/06/11 09:39:58;;;;;;;2.63;1.00;;;;;;;29.41;24.98;101782.63;5051804;28;20032;-70
2021/06/11 09:42:27;;;;;;;1.40;0.80;;;;;;;30.22;23.45;101767.59;5042372;28;20110;-68
2021/06/11 09:44:59;;;;;;;1.10;0.82;;;;;;;30.38;23.84;101774.81;5053507;28;20028;-69
2021/06/11 09:47:38;;;;;;;4.13;1.42;;;;;;;29.01;24.24;101777.94;5050638;28;20107;-69
2021/06/11 09:50:11;;;;;;;2.65;1.50;;;;;;;29.44;24.69;101779.63;5047706;28;20511;-70
2021/06/11 09:53:05;;;;;;;1.75;1.02;;;;;;;27.71;26.58;101785.72;5054533;28;20025;-69
2021/06/11 09:55:49;;;;;;;3.03;1.05;;;;;;;28.73;25.45;101791.59;5053482;28;20116;-71
2021/06/11 09:58:21;;;;;;;4.90;1.30;;;;;;;26.51;27.35;101783.00;5055157;28;20308;-68
2021/06/11 10:00:51;;;;;;;2.72;1.23;;;;;;;27.84;26.78;101779.97;5050644;28;20043;-69
2021/06/11 10:03:19;;;;;;;0.93;0.70;;;;;;;28.56;25.58;101782.56;5039570;28;20055;-69
2021/06/11 10:05:47;;;;;;;1.70;1.20;;;;;;;28.08;25.03;101776.66;5055072;28;20751;-70
2021/06/11 10:08:13;;;;;;;4.95;1.55;;;;;;;27.58;26.86;101773.66;5034037;28;20098;-69
2021/06/11 10:10:40;;;;;;;1.17;0.75;;;;;;;27.40;26.80;101766.44;5033370;28;20470;-70
2021/06/11 10:13:07;;;;;;;1.58;0.70;;;;;;;28.97;24.46;101766.69;5054548;28;20036;-67
2021/06/11 10:15:33;;;;;;;3.45;1.13;;;;;;;29.19;24.79;101764.41;5054023;28;20082;-70
2021/06/11 10:17:59;;;;;;;2.35;0.75;;;;;;;29.55;24.67;101759.59;5035383;28;20029;-72
2021/06/11 10:20:26;;;;;;;1.73;0.73;;;;;;;28.44;25.21;101763.19;5052453;28;20131;-71
2021/06/11 10:22:52;;;;;;;2.03;0.77;;;;;;;28.26;25.12;101768.59;5051217;28;20013;-70
2021/06/11 10:25:18;;;;;;;2.90;1.10;;;;;;;26.46;27.32;101777.25;5053453;28;20037;-68
2021/06/11 10:27:44;;;;;;;1.88;1.15;;;;;;;26.04;28.63;101772.19;5028098;28;20041;-69
2021/06/11 10:30:12;;;;;;;3.08;1.40;;;;;;;24.90;30.66;101782.34;5054119;28;20051;-67
2021/06/11 10:32:40;;;;;;;2.75;1.30;;;;;;;25.20;30.56;101772.66;5050104;28;20040;-68
2021/06/11 10:35:09;;;;;;;1.38;0.57;;;;;;;25.80;29.87;101778.84;5054254;28;20044;-71
2021/06/11 10:37:42;;;;;;;1.70;0.98;;;;;;;25.55;31.43;101776.69;5052561;28;20422;-68
2021/06/11 10:40:14;;;;;;;5.25;1.70;;;;;;;26.15;29.48;101771.22;5053345;28;20082;-70
2021/06/11 10:42:40;;;;;;;0.98;0.70;;;;;;;28.49;28.63;101765.38;5050728;28;20052;-68
2021/06/11 10:45:06;;;;;;;2.25;1.50;;;;;;;28.90;26.20;101763.78;5052733;28;20032;-68
2021/06/11 10:47:33;;;;;;;2.15;1.27;;;;;;;28.87;25.28;101755.19;5053327;28;20024;-69
2021/06/11 10:50:01;;;;;;;5.57;0.98;;;;;;;28.38;26.53;101765.66;5053402;28;20128;-69
2021/06/11 10:52:33;;;;;;;2.83;1.23;;;;;;;26.77;28.92;101761.78;5051415;28;20090;-69
2021/06/11 10:55:13;;;;;;;2.75;1.25;;;;;;;27.71;27.71;101755.34;5037456;28;20123;-69
2021/06/11 10:58:02;;;;;;;2.05;1.58;;;;;;;27.13;28.08;101747.69;5050962;28;20033;-70
2021/06/11 11:00:38;;;;;;;1.73;1.05;;;;;;;28.17;27.62;101748.03;5044141;28;20043;-70
2021/06/11 11:03:08;;;;;;;2.47;1.08;;;;;;;27.84;27.07;101757.66;5052261;28;20368;-71
2021/06/11 11:05:42;;;;;;;3.10;1.20;;;;;;;27.91;27.48;101758.72;5051704;28;20044;-69
2021/06/11 11:08:11;;;;;;;5.05;1.58;;;;;;;28.26;26.39;101752.47;5052786;28;20048;-69
2021/06/11 11:10:46;;;;;;;9.40;1.08;;;;;;;28.01;27.03;101758.63;5048265;28;20039;-70
2021/06/11 11:13:26;;;;;;;20.42;4.03;;;;;;;27.76;27.21;101752.22;5051247;28;20032;-70
2021/06/11 11:15:55;;;;;;;2.58;0.75;;;;;;;27.42;28.02;101752.88;5050782;28;20037;-71
2021/06/11 11:18:30;;;;;;;3.10;1.40;;;;;;;26.60;29.75;101757.19;5046796;28;20193;-69
2021/06/11 11:20:56;;;;;;;5.85;1.98;;;;;;;26.12;30.71;101758.13;5048595;28;20040;-70
2021/06/11 11:23:26;;;;;;;1.77;1.00;;;;;;;25.92;31.45;101759.94;5047958;28;20033;-70